Tokyo, Japan
Current Conditions -  °F | °C
As of 5:00 PM on Sunday 26 Oct 2014 (Local Time) from RJTT Reporting Station
Broken Clouds Broken Clouds  
Wind Chill: 22°   Ceiling: Unl
Heat Index: 22°   Visibility: 6mi
Dew Point: 17°   Wind: 9mph
Humidity: 73%   Direction: 190°S
Pressure: 30.03"   Gusts: NA
Location:  35.67°N, 139.77°E
Report Text: RJTT 260800Z 19008KT 9999 FEW020 BKN/// 22/17 Q1017 NOSIG
Loading
Personal Weather Stations






























Interactive Weather Map New forecast layout! Learn more

10-Day Weather Forecast

Advertisements
Track Severe Weather on mobile